createdAt,value
2022-11-14T00:01:33.706Z,7.40
2022-11-14T00:04:40.471Z,7.48
2022-11-14T00:07:47.449Z,7.56
2022-11-14T00:10:54.599Z,7.54
2022-11-14T00:14:00.334Z,7.54
2022-11-14T00:17:07.037Z,7.63
2022-11-14T00:20:13.430Z,7.70
2022-11-14T00:23:19.615Z,7.73
2022-11-14T00:26:27.058Z,7.76
2022-11-14T00:29:32.991Z,7.66
2022-11-14T00:32:38.647Z,7.74
2022-11-14T00:35:51.829Z,7.81
2022-11-14T00:38:57.600Z,7.87
2022-11-14T00:42:04.537Z,7.84
2022-11-14T00:45:10.994Z,7.83
2022-11-14T00:48:17.035Z,7.90
2022-11-14T00:51:22.178Z,7.91
2022-11-14T00:54:27.607Z,7.97
2022-11-14T00:57:35.088Z,8.04
2022-11-14T01:00:40.710Z,8.12
2022-11-14T01:03:49.189Z,8.18
2022-11-14T01:06:54.874Z,8.23
2022-11-14T01:10:00.420Z,8.28
2022-11-14T01:13:07.620Z,8.31
2022-11-14T01:16:13.684Z,8.35
2022-11-14T01:19:19.822Z,8.38
2022-11-14T01:22:25.397Z,8.40
2022-11-14T01:25:30.875Z,8.43
2022-11-14T01:28:39.005Z,8.49
2022-11-14T01:31:44.682Z,8.51
2022-11-14T01:34:50.161Z,8.53
2022-11-14T01:37:55.403Z,8.55
2022-11-14T01:41:01.001Z,8.56
2022-11-14T01:44:13.610Z,8.59
2022-11-14T01:47:22.008Z,8.64
2022-11-14T01:50:29.350Z,8.68
2022-11-14T01:53:35.441Z,8.73
2022-11-14T01:56:46.252Z,8.76
2022-11-14T01:59:55.875Z,8.80
2022-11-14T02:03:01.922Z,8.80
2022-11-14T02:06:10.089Z,8.77
2022-11-14T02:09:15.675Z,8.73
2022-11-14T02:12:22.000Z,8.70
2022-11-14T02:15:28.827Z,8.66
2022-11-14T02:18:34.040Z,8.57
2022-11-14T02:21:40.507Z,8.45
2022-11-14T02:24:46.259Z,8.37
2022-11-14T02:27:52.622Z,8.33
2022-11-14T02:30:58.079Z,8.28
2022-11-14T02:34:04.080Z,8.25
2022-11-14T02:37:10.897Z,8.22
2022-11-14T02:40:16.188Z,8.18
2022-11-14T02:43:21.580Z,8.11
2022-11-14T02:46:27.243Z,8.07
2022-11-14T02:49:32.478Z,8.03
2022-11-14T02:52:39.263Z,7.94
2022-11-14T02:55:44.625Z,7.94
2022-11-14T02:58:50.268Z,7.95
2022-11-14T03:01:55.969Z,7.97
2022-11-14T03:05:01.582Z,7.97
2022-11-14T03:08:08.121Z,7.99
2022-11-14T03:11:13.847Z,7.97
2022-11-14T03:14:19.108Z,7.99
2022-11-14T03:17:24.668Z,7.98
2022-11-14T03:20:30.027Z,7.98
2022-11-14T03:23:37.044Z,7.95
2022-11-14T03:26:42.759Z,7.94
2022-11-14T03:29:48.388Z,7.89
2022-11-14T03:32:53.827Z,7.86
2022-11-14T03:35:59.170Z,7.89
2022-11-14T03:39:06.890Z,7.89
2022-11-14T03:42:12.129Z,7.90
2022-11-14T03:45:17.660Z,7.91
2022-11-14T03:48:23.218Z,7.93
2022-11-14T03:51:28.768Z,7.95
2022-11-14T03:54:35.685Z,7.94
2022-11-14T03:57:41.154Z,7.95
2022-11-14T04:00:47.206Z,8.00
2022-11-14T04:03:52.629Z,8.01
2022-11-14T04:06:57.940Z,8.07
2022-11-14T04:10:05.675Z,8.08
2022-11-14T04:13:11.372Z,8.11
2022-11-14T04:16:16.640Z,8.11
2022-11-14T04:19:22.008Z,8.12
2022-11-14T04:22:27.497Z,8.11
2022-11-14T04:25:34.253Z,8.13
2022-11-14T04:28:40.215Z,8.13
2022-11-14T04:31:45.854Z,8.13
2022-11-14T04:34:51.586Z,8.12
2022-11-14T04:37:57.324Z,8.11
2022-11-14T04:41:04.503Z,8.10
2022-11-14T04:44:10.037Z,8.07
2022-11-14T04:47:15.511Z,8.05
2022-11-14T04:50:20.845Z,8.03
2022-11-14T04:53:26.073Z,8.03
2022-11-14T04:56:33.130Z,8.01
2022-11-14T04:59:38.392Z,8.01
2022-11-14T05:02:44.156Z,8.00
2022-11-14T05:05:49.977Z,8.01
2022-11-14T05:08:55.493Z,8.00
2022-11-14T05:12:02.052Z,8.02
2022-11-14T05:15:08.616Z,8.02
2022-11-14T05:18:14.013Z,8.01
2022-11-14T05:21:19.423Z,8.03
2022-11-14T05:24:25.290Z,8.04
2022-11-14T05:27:32.331Z,8.04
2022-11-14T05:30:37.979Z,7.98
2022-11-14T05:33:43.501Z,7.95
2022-11-14T05:36:48.749Z,7.89
2022-11-14T05:39:54.267Z,7.88
2022-11-14T05:43:00.904Z,7.81
2022-11-14T05:46:07.970Z,7.72
2022-11-14T05:49:15.790Z,7.62
2022-11-14T05:52:23.485Z,7.60
2022-11-14T05:55:28.820Z,7.62
2022-11-14T05:58:36.647Z,7.64
2022-11-14T06:01:42.242Z,7.67
2022-11-14T06:04:47.700Z,7.71
2022-11-14T06:07:57.333Z,7.71
2022-11-14T06:11:05.113Z,7.72
2022-11-14T06:14:12.095Z,7.75
2022-11-14T06:17:17.529Z,7.77
2022-11-14T06:20:23.273Z,7.77
2022-11-14T06:23:29.570Z,7.76
2022-11-14T06:26:34.943Z,7.77
2022-11-14T06:29:41.676Z,7.78
2022-11-14T06:32:46.982Z,7.77
2022-11-14T06:35:52.225Z,7.78
2022-11-14T06:38:57.556Z,7.81
2022-11-14T06:42:03.519Z,7.83
2022-11-14T06:45:11.830Z,7.86
2022-11-14T06:48:17.459Z,7.87
2022-11-14T06:51:22.789Z,7.88
2022-11-14T06:54:28.197Z,7.91
2022-11-14T06:57:33.748Z,7.94
2022-11-14T07:00:40.506Z,7.99
2022-11-14T07:03:46.057Z,8.03
2022-11-14T07:06:51.462Z,8.07
2022-11-14T07:09:58.865Z,8.14
2022-11-14T07:13:04.198Z,8.20
2022-11-14T07:16:11.195Z,8.28
2022-11-14T07:19:17.255Z,8.33
2022-11-14T07:22:22.990Z,8.42
2022-11-14T07:25:28.632Z,8.51
2022-11-14T07:28:35.805Z,8.61
2022-11-14T07:31:43.175Z,8.71
2022-11-14T07:34:48.883Z,8.82
2022-11-14T07:37:55.028Z,8.92
2022-11-14T07:41:01.843Z,9.02
2022-11-14T07:44:07.829Z,9.12
2022-11-14T07:47:14.857Z,9.22
2022-11-14T07:50:20.807Z,9.31
2022-11-14T07:53:26.157Z,9.41
2022-11-14T07:56:31.750Z,9.55
2022-11-14T07:59:37.125Z,9.66
2022-11-14T08:02:44.099Z,9.77
2022-11-14T08:05:49.830Z,9.87
2022-11-14T08:08:55.761Z,9.96
2022-11-14T08:12:01.535Z,10.03
2022-11-14T08:15:08.503Z,10.15
2022-11-14T08:18:15.526Z,10.22
2022-11-14T08:21:21.317Z,10.33
2022-11-14T08:24:26.940Z,10.44
2022-11-14T08:41:57.060Z,12.06
2022-11-14T08:45:02.489Z,12.06
2022-11-14T08:48:07.755Z,11.64
2022-11-14T08:51:13.067Z,11.72
2022-11-14T08:54:18.655Z,11.82
2022-11-14T08:57:25.778Z,11.86
2022-11-14T09:00:31.039Z,12.05
2022-11-14T09:03:36.545Z,12.18
2022-11-14T09:06:42.227Z,12.31
2022-11-14T09:09:47.357Z,12.39
2022-11-14T09:12:57.793Z,12.47
2022-11-14T09:16:03.431Z,12.48
2022-11-14T09:19:09.043Z,12.67
2022-11-14T09:22:14.503Z,12.83
2022-11-14T09:25:19.921Z,12.94
2022-11-14T09:28:26.910Z,13.10
2022-11-14T09:31:32.191Z,13.20
2022-11-14T09:34:42.837Z,13.36
2022-11-14T09:37:48.758Z,13.50
2022-11-14T09:41:06.322Z,13.63
2022-11-14T09:44:54.397Z,13.80
2022-11-14T09:48:09.594Z,13.92
2022-11-14T09:51:18.260Z,14.06
2022-11-14T09:54:26.042Z,14.25
2022-11-14T09:57:31.994Z,14.43
2022-11-14T10:00:48.562Z,14.57
2022-11-14T10:04:09.244Z,14.66
2022-11-14T10:07:27.362Z,14.75
2022-11-14T10:10:44.934Z,14.87
2022-11-14T10:14:24.449Z,14.95
2022-11-14T10:18:08.669Z,15.07
2022-11-14T10:21:30.069Z,15.14
2022-11-14T10:25:16.858Z,15.30
2022-11-14T10:28:34.659Z,15.45
2022-11-14T10:31:52.684Z,15.60
2022-11-14T10:35:05.181Z,15.59
2022-11-14T10:38:19.835Z,15.67
2022-11-14T10:41:54.992Z,15.76
2022-11-14T10:45:02.081Z,15.74
2022-11-14T10:48:14.148Z,15.88
2022-11-14T10:51:25.608Z,15.97
2022-11-14T10:54:38.005Z,16.05
2022-11-14T10:57:44.355Z,16.10
2022-11-14T11:00:50.140Z,16.17
2022-11-14T11:03:55.623Z,16.26
2022-11-14T11:07:34.850Z,16.32
2022-11-14T11:11:01.980Z,16.44
2022-11-14T11:14:18.063Z,16.54
2022-11-14T11:17:28.386Z,16.73
2022-11-14T11:20:42.050Z,16.81
2022-11-14T11:23:53.263Z,16.80
2022-11-14T11:27:22.827Z,16.85
2022-11-14T11:30:28.298Z,16.84
2022-11-14T11:33:35.609Z,17.02
2022-11-14T11:36:46.491Z,17.08
2022-11-14T11:39:56.927Z,17.14
2022-11-14T11:43:37.879Z,17.24
2022-11-14T11:46:50.800Z,17.28
2022-11-14T11:49:56.136Z,17.30
2022-11-14T11:53:14.183Z,17.36
2022-11-14T11:56:26.063Z,17.49
2022-11-14T11:59:36.317Z,17.56
2022-11-14T12:02:49.536Z,17.66
2022-11-14T12:06:05.991Z,17.75
2022-11-14T12:09:19.305Z,17.97
2022-11-14T12:12:38.751Z,18.21
2022-11-14T12:15:55.334Z,18.46
2022-11-14T12:19:29.220Z,18.59
2022-11-14T12:23:16.630Z,18.70
2022-11-14T12:26:40.980Z,18.62
2022-11-14T12:29:55.168Z,18.62
2022-11-14T12:33:09.765Z,18.65
2022-11-14T12:36:15.442Z,18.63
2022-11-14T12:39:25.918Z,18.77
2022-11-14T12:42:32.864Z,18.79
2022-11-14T12:45:58.362Z,18.71
2022-11-14T12:49:38.115Z,18.63
2022-11-14T12:52:48.719Z,18.72
2022-11-14T12:56:13.877Z,18.77
2022-11-14T12:59:27.636Z,18.71
2022-11-14T13:03:02.900Z,18.83
2022-11-14T13:06:17.648Z,18.84
2022-11-14T13:09:33.835Z,18.76
2022-11-14T13:12:57.510Z,18.77
2022-11-14T13:16:36.883Z,18.89
2022-11-14T13:20:05.441Z,18.95
2022-11-14T13:23:49.785Z,19.03
2022-11-14T13:27:16.680Z,19.08
2022-11-14T13:30:55.582Z,19.04
2022-11-14T13:34:02.413Z,19.12
2022-11-14T13:37:22.571Z,19.00
2022-11-14T13:40:34.473Z,18.91
2022-11-14T13:43:57.433Z,18.85
2022-11-14T13:47:20.347Z,18.81
2022-11-14T13:50:30.961Z,18.77
2022-11-14T13:53:39.876Z,18.62
2022-11-14T13:57:01.072Z,18.61
2022-11-14T14:00:19.749Z,18.55
2022-11-14T14:03:50.272Z,18.52
2022-11-14T14:07:08.563Z,18.43
2022-11-14T14:10:27.214Z,18.27
2022-11-14T14:13:52.434Z,18.09
2022-11-14T14:17:08.732Z,17.91
2022-11-14T14:20:27.013Z,17.71
2022-11-14T14:23:41.282Z,17.56
2022-11-14T14:27:02.238Z,17.55
2022-11-14T14:30:12.386Z,17.48
2022-11-14T14:33:19.579Z,17.42
2022-11-14T14:36:26.693Z,17.22
2022-11-14T14:39:32.308Z,17.15
2022-11-14T14:42:40.521Z,17.10
2022-11-14T14:45:49.431Z,17.03
2022-11-14T14:48:57.315Z,16.90
2022-11-14T14:52:03.051Z,16.81
2022-11-14T14:55:20.248Z,16.68
2022-11-14T14:58:28.351Z,16.59
2022-11-14T15:01:36.511Z,16.52
2022-11-14T15:04:43.526Z,16.42
2022-11-14T15:07:50.494Z,16.29
2022-11-14T15:10:59.396Z,16.18
2022-11-14T15:14:05.408Z,16.05
2022-11-14T15:17:11.729Z,15.92
2022-11-14T15:20:27.478Z,15.81
2022-11-14T15:23:33.425Z,15.70
2022-11-14T15:26:39.396Z,15.58
2022-11-14T15:29:47.492Z,15.46
2022-11-14T15:32:55.382Z,15.37
2022-11-14T15:36:12.283Z,15.23
2022-11-14T15:39:28.061Z,15.16
2022-11-14T15:42:33.940Z,15.10
2022-11-14T15:45:41.607Z,14.95
2022-11-14T15:48:47.837Z,14.90
2022-11-14T15:51:57.540Z,14.88
2022-11-14T15:55:03.828Z,14.78
2022-11-14T16:01:35.717Z,14.70
2022-11-14T16:04:47.028Z,14.65
2022-11-14T16:07:54.776Z,14.53
2022-11-14T16:11:00.415Z,14.48
2022-11-14T16:14:06.345Z,14.45
2022-11-14T16:17:15.312Z,14.43
2022-11-14T16:20:23.557Z,14.37
2022-11-14T16:23:30.797Z,14.32
2022-11-14T16:26:38.056Z,14.29
2022-11-14T16:29:43.756Z,14.22
2022-11-14T16:32:50.913Z,14.15
2022-11-14T16:35:56.462Z,14.12
2022-11-14T16:39:10.420Z,14.09
2022-11-14T16:42:15.456Z,14.00
2022-11-14T16:45:21.241Z,13.93
2022-11-14T16:48:27.392Z,13.90
2022-11-14T16:51:49.992Z,13.81
2022-11-14T16:54:57.688Z,13.74
2022-11-14T16:58:03.078Z,13.67
2022-11-14T17:01:14.374Z,13.67
2022-11-14T17:04:22.300Z,13.64
2022-11-14T17:07:30.600Z,13.58
2022-11-14T17:10:42.373Z,13.54
2022-11-14T17:13:48.012Z,13.48
2022-11-14T17:16:53.595Z,13.43
2022-11-14T17:20:00.114Z,13.38
2022-11-14T17:23:05.558Z,13.33
2022-11-14T17:26:14.573Z,13.31
2022-11-14T17:29:20.593Z,13.27
2022-11-14T17:32:26.172Z,13.23
2022-11-14T17:35:31.568Z,13.17
2022-11-14T17:38:38.452Z,13.14
2022-11-14T17:41:45.216Z,13.11
2022-11-14T17:44:50.480Z,13.07
2022-11-14T17:47:55.733Z,13.03
2022-11-14T17:51:05.540Z,12.99
2022-11-14T17:54:10.987Z,12.90
2022-11-14T17:57:17.566Z,12.83
2022-11-14T18:00:23.184Z,12.76
2022-11-14T18:03:29.401Z,12.69
2022-11-14T18:06:35.546Z,12.64
2022-11-14T18:09:41.483Z,12.62
2022-11-14T18:12:48.669Z,12.59
2022-11-14T18:15:54.198Z,12.51
2022-11-14T18:18:59.509Z,12.46
2022-11-14T18:22:04.938Z,12.41
2022-11-14T18:25:10.679Z,12.37
2022-11-14T18:28:17.844Z,12.32
2022-11-14T18:31:24.910Z,12.27
2022-11-14T18:34:30.763Z,12.24
2022-11-14T18:37:36.391Z,12.18
2022-11-14T18:40:44.484Z,12.15
2022-11-14T18:43:56.054Z,12.14
2022-11-14T18:47:01.796Z,12.13
2022-11-14T18:50:08.257Z,12.12
2022-11-14T18:53:14.268Z,12.08
2022-11-14T18:56:21.761Z,11.99
2022-11-14T18:59:29.181Z,11.93
2022-11-14T19:02:34.861Z,11.85
2022-11-14T19:05:40.396Z,11.78
2022-11-14T19:08:45.924Z,11.79
2022-11-14T19:12:09.259Z,11.88
2022-11-14T19:15:16.333Z,11.93
2022-11-14T19:18:22.085Z,11.90
2022-11-14T19:21:27.703Z,11.90
2022-11-14T19:24:33.970Z,11.93
2022-11-14T19:27:39.987Z,11.98
2022-11-14T19:30:46.982Z,12.00
2022-11-14T19:33:52.241Z,12.02
2022-11-14T19:37:00.698Z,12.03
2022-11-14T19:40:08.359Z,12.04
2022-11-14T19:43:14.205Z,12.00
2022-11-14T19:46:21.774Z,12.00
2022-11-14T19:49:27.709Z,12.05
2022-11-14T19:52:33.553Z,12.06
2022-11-14T19:55:38.981Z,12.08
2022-11-14T19:58:47.300Z,12.08
2022-11-14T20:01:55.551Z,12.03
2022-11-14T20:05:01.694Z,11.97
2022-11-14T20:08:07.517Z,11.94
2022-11-14T20:11:13.018Z,11.92
2022-11-14T20:14:19.364Z,11.92
2022-11-14T20:17:26.278Z,11.92
2022-11-14T20:20:31.793Z,11.97
2022-11-14T20:23:37.615Z,11.97
2022-11-14T20:26:43.451Z,11.94
2022-11-14T20:29:49.091Z,12.02
2022-11-14T20:32:56.266Z,11.99
2022-11-14T20:36:06.751Z,12.02
2022-11-14T20:39:12.090Z,12.14
2022-11-14T20:42:17.708Z,12.16
2022-11-14T20:45:23.336Z,12.16
2022-11-14T20:48:31.687Z,12.18
2022-11-14T20:51:37.661Z,12.13
2022-11-14T20:54:42.943Z,12.16
2022-11-14T20:57:48.455Z,12.17
2022-11-14T21:00:54.374Z,12.16
2022-11-14T21:04:01.380Z,12.16
2022-11-14T21:07:06.954Z,12.17
2022-11-14T21:10:30.085Z,12.15
2022-11-14T21:13:54.244Z,12.15
2022-11-14T21:16:59.982Z,12.09
2022-11-14T21:20:08.220Z,12.11
2022-11-14T21:23:13.961Z,12.06
2022-11-14T21:26:22.328Z,12.10
2022-11-14T21:29:27.838Z,12.14
2022-11-14T21:32:36.362Z,12.12
2022-11-14T21:35:43.512Z,12.17
2022-11-14T21:38:49.558Z,12.25
2022-11-14T21:41:55.499Z,12.26
2022-11-14T21:45:01.046Z,12.26
2022-11-14T21:48:06.904Z,12.21
2022-11-14T21:51:15.465Z,12.24
2022-11-14T21:54:23.508Z,12.32
2022-11-14T21:57:29.401Z,12.37
2022-11-14T22:00:34.758Z,12.35
2022-11-14T22:03:58.976Z,12.34
2022-11-14T22:07:08.439Z,12.28
2022-11-14T22:10:14.122Z,12.23
2022-11-14T22:13:19.494Z,12.25
2022-11-14T22:16:25.802Z,12.22
2022-11-14T22:19:31.545Z,12.21
2022-11-14T22:22:38.228Z,12.21
2022-11-14T22:25:43.732Z,12.21
2022-11-14T22:28:49.660Z,12.17
2022-11-14T22:31:56.600Z,12.15
2022-11-14T22:35:02.149Z,12.10
2022-11-14T22:38:08.803Z,12.07
2022-11-14T22:41:15.937Z,12.07
2022-11-14T22:44:21.269Z,12.07
2022-11-14T22:47:26.582Z,12.09
2022-11-14T22:50:31.992Z,12.09
2022-11-14T22:53:39.222Z,12.10
2022-11-14T22:56:44.999Z,12.07
2022-11-14T22:59:50.581Z,12.06
2022-11-14T23:02:56.765Z,12.04
2022-11-14T23:06:07.641Z,11.98
2022-11-14T23:09:14.507Z,12.01
2022-11-14T23:12:20.116Z,11.88
2022-11-14T23:15:25.908Z,11.98
2022-11-14T23:18:31.946Z,12.01
2022-11-14T23:21:38.963Z,12.01
2022-11-14T23:24:46.025Z,11.98
2022-11-14T23:27:51.382Z,12.03
2022-11-14T23:30:56.977Z,12.03
2022-11-14T23:34:02.632Z,11.96
2022-11-14T23:37:07.752Z,11.97
2022-11-14T23:40:14.703Z,11.94
2022-11-14T23:43:20.451Z,12.05
2022-11-14T23:46:26.714Z,12.08
2022-11-14T23:49:32.790Z,12.13
2022-11-14T23:52:38.262Z,12.12
2022-11-14T23:55:51.744Z,12.14
2022-11-14T23:58:57.475Z,12.16
